createdAt,value
2022-12-01T05:52:11.855Z,101013.13
2022-12-01T05:57:11.296Z,101001.56
2022-12-01T06:00:47.191Z,101005.38
2022-12-01T06:04:49.262Z,101011.78
2022-12-01T06:08:53.841Z,101024.28
2022-12-01T06:12:58.377Z,101033.09
2022-12-01T06:17:04.115Z,101019.06
2022-12-01T06:21:09.045Z,101007.03
2022-12-01T06:25:37.912Z,101023.81
2022-12-01T06:29:49.503Z,101043.44
2022-12-01T06:34:08.614Z,101027.50
2022-12-01T06:43:11.502Z,101023.09
2022-12-01T06:47:45.967Z,101040.34
2022-12-01T06:51:53.971Z,101049.25
2022-12-01T06:56:07.425Z,101052.59
2022-12-01T07:00:21.547Z,101048.22
2022-12-01T07:04:37.923Z,101048.94
2022-12-01T07:08:47.912Z,101044.44
2022-12-01T07:12:56.315Z,101055.34
2022-12-01T07:16:59.416Z,101062.25
2022-12-01T07:21:08.794Z,101071.44
2022-12-01T07:25:12.333Z,101057.72
2022-12-01T07:29:22.150Z,101065.03
2022-12-01T07:33:29.776Z,101059.59
2022-12-01T07:37:32.349Z,101061.94
2022-12-01T07:41:37.600Z,101054.31
2022-12-01T07:46:22.343Z,101069.72
2022-12-01T07:50:25.546Z,101067.50
2022-12-01T07:54:33.868Z,101063.03
2022-12-01T07:58:50.210Z,101067.84
2022-12-01T08:02:52.404Z,101074.63
2022-12-01T08:06:54.693Z,101067.88
2022-12-01T08:11:04.291Z,101069.50
2022-12-01T08:15:10.152Z,101073.44
2022-12-01T08:19:12.604Z,101073.66
2022-12-01T08:23:14.987Z,101074.91
2022-12-01T08:27:17.266Z,101077.81
2022-12-01T08:31:35.949Z,101061.47
2022-12-01T08:35:46.800Z,101072.34
2022-12-01T08:39:49.131Z,101061.72
2022-12-01T08:43:59.651Z,101072.84
2022-12-01T08:48:02.384Z,101061.31
2022-12-01T08:52:04.444Z,101075.34
2022-12-01T08:56:28.233Z,101067.25
2022-12-01T09:00:30.165Z,101069.56
2022-12-01T09:04:32.052Z,101084.16
2022-12-01T09:08:35.172Z,101077.03
2022-12-01T09:12:37.116Z,101081.69
2022-12-01T09:16:39.412Z,101080.94
2022-12-01T09:20:41.366Z,101087.06
2022-12-01T09:24:43.275Z,101078.59
2022-12-01T09:28:47.234Z,101081.03
2022-12-01T09:32:49.144Z,101086.63
2022-12-01T09:36:51.133Z,101090.91
2022-12-01T09:40:55.988Z,101067.72
2022-12-01T09:45:10.359Z,101072.69
2022-12-01T09:49:23.069Z,101061.66
2022-12-01T09:53:28.842Z,101072.31
2022-12-01T09:57:37.163Z,101065.41
2022-12-01T10:01:43.334Z,101060.91
2022-12-01T10:06:24.602Z,101066.88
2022-12-01T10:10:30.062Z,101061.22
2022-12-01T10:14:34.026Z,101050.56
2022-12-01T10:19:12.898Z,101052.72
2022-12-01T10:23:37.322Z,101051.47
2022-12-01T10:27:52.695Z,101046.88
2022-12-01T10:31:58.418Z,101037.59
2022-12-01T10:36:02.908Z,101040.78
2022-12-01T10:40:05.833Z,101033.19
2022-12-01T10:44:07.744Z,101028.06
2022-12-01T10:48:20.881Z,101026.78
2022-12-01T10:52:33.815Z,101039.09
2022-12-01T10:56:37.723Z,101022.81
2022-12-01T11:00:59.556Z,101023.06
2022-12-01T11:05:07.177Z,101025.75
2022-12-01T11:09:26.411Z,101014.88
2022-12-01T11:13:30.828Z,101017.59
2022-12-01T11:17:42.401Z,101024.16
2022-12-01T11:21:52.885Z,101037.59
2022-12-01T11:26:11.119Z,101022.41
2022-12-01T11:30:29.831Z,101031.44
2022-12-01T11:34:40.609Z,101021.19
2022-12-01T11:38:45.424Z,101007.16
2022-12-01T11:42:50.588Z,101008.34
2022-12-01T11:47:07.673Z,100994.81
2022-12-01T11:51:20.488Z,101013.09
2022-12-01T11:55:25.129Z,101005.06
2022-12-01T11:59:28.377Z,100998.06
2022-12-01T12:03:39.084Z,100992.00
2022-12-01T12:08:23.672Z,100998.22
2022-12-01T12:12:39.785Z,100978.09
2022-12-01T12:17:06.130Z,100995.19
2022-12-01T12:21:40.668Z,100977.31
2022-12-01T12:26:13.932Z,100981.00
2022-12-01T12:30:29.943Z,100977.66
2022-12-01T12:34:38.585Z,100980.47
2022-12-01T12:39:16.916Z,100977.38
2022-12-01T12:43:34.040Z,100987.28
2022-12-01T12:49:03.452Z,100988.19
2022-12-01T12:53:27.302Z,100985.47
2022-12-01T12:57:59.898Z,100973.31
2022-12-01T13:02:14.318Z,100966.34
2022-12-01T13:06:46.033Z,100965.19
2022-12-01T13:11:18.122Z,100965.25
2022-12-01T13:15:25.811Z,100972.69
2022-12-01T13:19:33.744Z,100971.22
2022-12-01T13:23:35.930Z,100967.91
2022-12-01T13:27:38.570Z,100973.09
2022-12-01T13:31:54.462Z,100960.91
2022-12-01T13:36:46.594Z,100975.13
2022-12-01T13:40:49.343Z,100981.13
2022-12-01T13:44:57.091Z,100969.63
2022-12-01T13:49:01.561Z,100976.53
2022-12-01T13:53:27.394Z,100979.47
2022-12-01T13:57:34.225Z,100966.66
2022-12-01T14:01:44.578Z,100974.00
2022-12-01T14:06:06.588Z,100962.97
2022-12-01T14:10:24.572Z,100962.00
2022-12-01T14:14:37.343Z,100967.34
2022-12-01T14:19:03.829Z,100964.22
2022-12-01T14:23:37.954Z,100962.25
2022-12-01T14:27:43.583Z,100953.75
2022-12-01T14:32:05.495Z,100959.34
2022-12-01T14:36:23.404Z,100966.22
2022-12-01T14:40:27.838Z,100953.94
2022-12-01T14:44:31.181Z,100957.44
2022-12-01T14:48:39.437Z,100964.75
2022-12-01T14:53:01.737Z,100967.69
2022-12-01T14:57:07.380Z,100957.31
2022-12-01T15:01:23.008Z,100949.22
2022-12-01T15:05:32.543Z,100937.44
2022-12-01T15:09:35.452Z,100950.75
2022-12-01T15:13:55.279Z,100950.41
2022-12-01T15:18:01.799Z,100950.88
2022-12-01T15:22:12.852Z,100954.91
2022-12-01T15:26:22.693Z,100947.19
2022-12-01T15:30:24.591Z,100949.56
2022-12-01T15:34:31.070Z,100947.59
2022-12-01T15:38:37.928Z,100936.94
2022-12-01T15:42:39.969Z,100958.91
2022-12-01T15:46:42.136Z,100950.66
2022-12-01T15:50:49.237Z,100949.63
2022-12-01T15:54:51.372Z,100951.22
2022-12-01T15:58:55.288Z,100944.03
2022-12-01T16:02:58.524Z,100946.56
2022-12-01T16:07:08.779Z,100955.44
2022-12-01T16:11:18.644Z,100957.31
2022-12-01T16:15:25.643Z,100958.97
2022-12-01T16:19:48.251Z,100961.19
2022-12-01T16:24:14.643Z,100951.84
2022-12-01T16:28:35.613Z,100953.25
2022-12-01T16:38:38.531Z,100943.47
2022-12-01T16:48:47.242Z,100956.09
2022-12-01T16:53:01.382Z,100957.47
2022-12-01T16:57:39.679Z,100967.16
2022-12-01T17:01:52.513Z,100957.47
2022-12-01T17:06:06.963Z,100969.22
2022-12-01T17:10:18.476Z,100957.97
2022-12-01T17:15:09.747Z,100950.56
2022-12-01T17:24:30.884Z,100956.56
2022-12-01T17:39:39.553Z,100962.53
2022-12-01T17:43:44.701Z,100964.66
2022-12-01T17:47:49.442Z,100957.66
2022-12-01T17:52:07.755Z,100958.75
2022-12-01T18:00:40.595Z,100962.84
2022-12-01T18:09:24.316Z,100963.31
2022-12-01T18:13:48.417Z,100955.06
2022-12-01T18:17:52.082Z,100963.34
2022-12-01T18:21:56.527Z,100970.50
2022-12-01T18:26:12.102Z,100962.25
2022-12-01T18:30:32.118Z,100960.47
2022-12-01T18:35:55.952Z,100955.88
2022-12-01T19:01:56.025Z,100945.72
2022-12-01T19:05:58.434Z,100943.97
2022-12-01T19:10:00.363Z,100955.16
2022-12-01T19:14:02.306Z,100945.28
2022-12-01T19:18:04.397Z,100937.88
2022-12-01T19:22:06.322Z,100938.38
2022-12-01T19:26:11.611Z,100926.03
2022-12-01T19:30:13.749Z,100930.50
2022-12-01T19:34:15.768Z,100937.84
2022-12-01T19:38:17.714Z,100935.72
2022-12-01T19:42:19.723Z,100942.09
2022-12-01T19:46:23.835Z,100940.34
2022-12-01T19:50:27.546Z,100936.34
2022-12-01T19:54:30.465Z,100935.19
2022-12-01T19:58:35.219Z,100922.56
2022-12-01T20:02:37.163Z,100931.78
2022-12-01T20:06:43.784Z,100937.84
2022-12-01T20:10:47.987Z,100941.13
2022-12-01T20:14:50.237Z,100931.03
2022-12-01T20:18:52.784Z,100927.75
2022-12-01T20:22:54.730Z,100933.25
2022-12-01T20:26:57.545Z,100934.41
2022-12-01T20:30:59.556Z,100945.38
2022-12-01T20:35:04.890Z,100934.06
2022-12-01T20:39:07.795Z,100932.19
2022-12-01T20:43:09.752Z,100925.38
2022-12-01T20:47:11.784Z,100941.13
2022-12-01T20:51:14.358Z,100929.44
2022-12-01T20:55:16.402Z,100921.75
2022-12-01T20:59:18.226Z,100914.44
2022-12-01T21:03:20.067Z,100909.78
2022-12-01T21:07:21.981Z,100914.34
2022-12-01T21:12:03.051Z,100911.72
2022-12-01T21:16:12.375Z,100917.44
2022-12-01T21:20:39.284Z,100908.66
2022-12-01T21:24:44.158Z,100916.66
2022-12-01T21:28:46.360Z,100913.88
2022-12-01T21:32:48.899Z,100919.53
2022-12-01T21:36:59.087Z,100912.75
2022-12-01T21:41:02.906Z,100918.25
2022-12-01T21:45:32.880Z,100921.06
2022-12-01T21:49:39.187Z,100913.09
2022-12-01T21:53:40.955Z,100918.88
2022-12-01T21:57:47.002Z,100905.84
2022-12-01T22:01:56.702Z,100905.44
2022-12-01T22:06:29.617Z,100898.56
2022-12-01T22:11:13.342Z,100907.59
2022-12-01T22:15:36.365Z,100901.81
2022-12-01T22:19:40.019Z,100895.03
2022-12-01T22:23:41.840Z,100899.03
2022-12-01T22:27:44.030Z,100896.53
2022-12-01T22:31:45.830Z,100897.06
2022-12-01T22:35:49.339Z,100901.53
2022-12-01T22:39:55.915Z,100900.09
2022-12-01T22:44:01.574Z,100898.16
2022-12-01T22:48:03.491Z,100897.50
2022-12-01T22:52:28.264Z,100895.38
2022-12-01T22:56:50.624Z,100888.56
2022-12-01T23:00:52.828Z,100890.38
2022-12-01T23:05:15.344Z,100877.84
2022-12-01T23:09:17.160Z,100881.31
2022-12-01T23:13:23.870Z,100882.00
2022-12-01T23:17:31.010Z,100876.13
2022-12-01T23:21:32.892Z,100862.31
2022-12-01T23:25:35.156Z,100850.75
2022-12-01T23:29:37.330Z,100863.97
2022-12-01T23:33:39.434Z,100862.72
2022-12-01T23:37:42.356Z,100866.91
2022-12-01T23:41:46.478Z,100846.41
2022-12-01T23:45:50.895Z,100857.44
2022-12-01T23:50:01.629Z,100844.66
2022-12-01T23:54:31.135Z,100843.84
2022-12-01T23:58:34.090Z,100832.09
